sensor_id;sensor_type;location;lat;lon;timestamp;pressure;altitude;pressure_sealevel;temperature;humidity
24746;BME280;12845;52.042;6.838;2023-03-22T00:00:54;-18311.59;;;10.53;100.00
24746;BME280;12845;52.042;6.838;2023-03-22T00:03:20;-18311.47;;;10.53;100.00
24746;BME280;12845;52.042;6.838;2023-03-22T00:05:46;-18310.91;;;10.51;100.00
24746;BME280;12845;52.042;6.838;2023-03-22T00:08:11;-18312.00;;;10.55;100.00
24746;BME280;12845;52.042;6.838;2023-03-22T00:10:39;-18313.13;;;10.59;100.00
24746;BME280;12845;52.042;6.838;2023-03-22T00:13:06;-18311.75;;;10.54;100.00
24746;BME280;12845;52.042;6.838;2023-03-22T00:15:32;-18311.47;;;10.53;100.00
24746;BME280;12845;52.042;6.838;2023-03-22T00:17:58;-18310.50;;;10.49;100.00
24746;BME280;12845;52.042;6.838;2023-03-22T00:20:30;-18312.00;;;10.55;100.00
24746;BME280;12845;52.042;6.838;2023-03-22T00:22:58;-18312.28;;;10.56;100.00
24746;BME280;12845;52.042;6.838;2023-03-22T00:25:23;-18311.06;;;10.51;100.00
24746;BME280;12845;52.042;6.838;2023-03-22T00:27:49;-18308.72;;;10.43;100.00
24746;BME280;12845;52.042;6.838;2023-03-22T00:30:15;-18309.13;;;10.44;100.00
24746;BME280;12845;52.042;6.838;2023-03-22T00:32:40;-18307.88;;;10.39;100.00
24746;BME280;12845;52.042;6.838;2023-03-22T00:35:07;-18307.19;;;10.37;100.00
24746;BME280;12845;52.042;6.838;2023-03-22T00:37:34;-18306.38;;;10.34;100.00
24746;BME280;12845;52.042;6.838;2023-03-22T00:40:08;-18307.19;;;10.37;100.00
24746;BME280;12845;52.042;6.838;2023-03-22T00:42:35;-18306.38;;;10.34;100.00
24746;BME280;12845;52.042;6.838;2023-03-22T00:45:00;-18305.28;;;10.30;100.00
24746;BME280;12845;52.042;6.838;2023-03-22T00:47:26;-18306.50;;;10.34;100.00
24746;BME280;12845;52.042;6.838;2023-03-22T00:49:51;-18304.88;;;10.28;100.00
24746;BME280;12845;52.042;6.838;2023-03-22T00:52:16;-18305.56;;;10.31;100.00
24746;BME280;12845;52.042;6.838;2023-03-22T00:54:42;-18305.28;;;10.30;100.00
24746;BME280;12845;52.042;6.838;2023-03-22T00:57:07;-18305.13;;;10.29;100.00
24746;BME280;12845;52.042;6.838;2023-03-22T00:59:33;-18304.03;;;10.25;100.00
24746;BME280;12845;52.042;6.838;2023-03-22T01:02:02;-18303.91;;;10.25;100.00
24746;BME280;12845;52.042;6.838;2023-03-22T01:04:28;-18301.84;;;10.17;100.00
24746;BME280;12845;52.042;6.838;2023-03-22T01:06:55;-18301.97;;;10.17;100.00
24746;BME280;12845;52.042;6.838;2023-03-22T01:09:25;-18301.97;;;10.17;100.00
24746;BME280;12845;52.042;6.838;2023-03-22T01:11:54;-18300.75;;;10.13;100.00
24746;BME280;12845;52.042;6.838;2023-03-22T01:14:23;-18300.19;;;10.11;100.00
24746;BME280;12845;52.042;6.838;2023-03-22T01:16:48;-18297.56;;;10.01;100.00
24746;BME280;12845;52.042;6.838;2023-03-22T01:19:14;-18297.44;;;10.01;100.00
24746;BME280;12845;52.042;6.838;2023-03-22T01:21:40;-18298.13;;;10.03;100.00
24746;BME280;12845;52.042;6.838;2023-03-22T01:24:05;-18298.53;;;10.05;100.00
24746;BME280;12845;52.042;6.838;2023-03-22T01:26:31;-18296.63;;;9.98;100.00
24746;BME280;12845;52.042;6.838;2023-03-22T01:28:56;-18298.69;;;10.05;100.00
24746;BME280;12845;52.042;6.838;2023-03-22T01:31:22;-18298.41;;;10.04;100.00
24746;BME280;12845;52.042;6.838;2023-03-22T01:33:47;-18298.69;;;10.05;100.00
24746;BME280;12845;52.042;6.838;2023-03-22T01:36:12;-18298.94;;;10.06;100.00
24746;BME280;12845;52.042;6.838;2023-03-22T01:38:38;-18298.25;;;10.04;100.00
24746;BME280;12845;52.042;6.838;2023-03-22T01:41:03;-18296.88;;;9.99;100.00
24746;BME280;12845;52.042;6.838;2023-03-22T01:43:29;-18297.56;;;10.01;100.00
24746;BME280;12845;52.042;6.838;2023-03-22T01:45:54;-18296.19;;;9.96;100.00
24746;BME280;12845;52.042;6.838;2023-03-22T01:48:24;-18294.41;;;9.89;100.00
24746;BME280;12845;52.042;6.838;2023-03-22T01:51:11;-18293.19;;;9.85;100.00
24746;BME280;12845;52.042;6.838;2023-03-22T01:53:44;-18292.22;;;9.81;100.00
24746;BME280;12845;52.042;6.838;2023-03-22T01:56:12;-18291.94;;;9.80;100.00
24746;BME280;12845;52.042;6.838;2023-03-22T01:58:38;-18292.34;;;9.82;100.00
24746;BME280;12845;52.042;6.838;2023-03-22T02:01:06;-18290.69;;;9.76;100.00
24746;BME280;12845;52.042;6.838;2023-03-22T02:06:27;-18288.22;;;9.66;100.00
24746;BME280;12845;52.042;6.838;2023-03-22T02:08:54;-18287.94;;;9.65;100.00
24746;BME280;12845;52.042;6.838;2023-03-22T02:11:28;-18287.53;;;9.64;100.00
24746;BME280;12845;52.042;6.838;2023-03-22T02:14:05;-18287.00;;;9.62;100.00
24746;BME280;12845;52.042;6.838;2023-03-22T02:16:55;-18287.53;;;9.64;100.00
24746;BME280;12845;52.042;6.838;2023-03-22T02:25:50;-18284.66;;;9.53;100.00
24746;BME280;12845;52.042;6.838;2023-03-22T02:28:37;-18283.81;;;9.50;100.00
24746;BME280;12845;52.042;6.838;2023-03-22T02:33:58;-18282.59;;;9.45;100.00
24746;BME280;12845;52.042;6.838;2023-03-22T02:47:47;-18281.63;;;9.42;100.00
24746;BME280;12845;52.042;6.838;2023-03-22T02:53:26;-18283.00;;;9.47;100.00
24746;BME280;12845;52.042;6.838;2023-03-22T02:56:21;-18282.72;;;9.46;100.00
24746;BME280;12845;52.042;6.838;2023-03-22T02:58:50;-18283.28;;;9.48;100.00
24746;BME280;12845;52.042;6.838;2023-03-22T03:01:27;-18284.94;;;9.54;100.00
24746;BME280;12845;52.042;6.838;2023-03-22T03:03:58;-18285.47;;;9.56;100.00
24746;BME280;12845;52.042;6.838;2023-03-22T03:06:28;-18286.16;;;9.59;100.00
24746;BME280;12845;52.042;6.838;2023-03-22T03:08:56;-18286.31;;;9.59;100.00
24746;BME280;12845;52.042;6.838;2023-03-22T03:11:23;-18286.56;;;9.60;100.00
24746;BME280;12845;52.042;6.838;2023-03-22T03:13:49;-18286.84;;;9.61;100.00
24746;BME280;12845;52.042;6.838;2023-03-22T03:16:17;-18288.78;;;9.68;100.00
24746;BME280;12845;52.042;6.838;2023-03-22T03:18:59;-18289.75;;;9.72;100.00
24746;BME280;12845;52.042;6.838;2023-03-22T03:21:49;-18289.59;;;9.71;100.00
24746;BME280;12845;52.042;6.838;2023-03-22T03:27:15;-18289.88;;;9.73;100.00
24746;BME280;12845;52.042;6.838;2023-03-22T03:29:49;-18289.88;;;9.73;100.00
24746;BME280;12845;52.042;6.838;2023-03-22T03:32:34;-18290.69;;;9.76;100.00
24746;BME280;12845;52.042;6.838;2023-03-22T03:35:04;-18292.06;;;9.81;100.00
24746;BME280;12845;52.042;6.838;2023-03-22T03:37:38;-18293.03;;;9.84;100.00
24746;BME280;12845;52.042;6.838;2023-03-22T03:42:37;-18293.44;;;9.86;100.00
24746;BME280;12845;52.042;6.838;2023-03-22T03:45:04;-18293.88;;;9.87;100.00
24746;BME280;12845;52.042;6.838;2023-03-22T03:47:33;-18294.28;;;9.89;100.00
24746;BME280;12845;52.042;6.838;2023-03-22T03:49:59;-18294.81;;;9.91;100.00
24746;BME280;12845;52.042;6.838;2023-03-22T03:52:24;-18294.41;;;9.89;100.00
24746;BME280;12845;52.042;6.838;2023-03-22T03:54:50;-18294.56;;;9.90;100.00
24746;BME280;12845;52.042;6.838;2023-03-22T03:57:16;-18294.81;;;9.91;100.00
24746;BME280;12845;52.042;6.838;2023-03-22T03:59:41;-18295.09;;;9.92;100.00
24746;BME280;12845;52.042;6.838;2023-03-22T04:02:07;-18295.66;;;9.94;100.00
24746;BME280;12845;52.042;6.838;2023-03-22T04:04:32;-18297.03;;;9.99;100.00
24746;BME280;12845;52.042;6.838;2023-03-22T04:07:00;-18297.56;;;10.01;100.00
24746;BME280;12845;52.042;6.838;2023-03-22T04:09:28;-18298.94;;;10.06;100.00
24746;BME280;12845;52.042;6.838;2023-03-22T04:11:54;-18298.94;;;10.06;100.00
24746;BME280;12845;52.042;6.838;2023-03-22T04:14:20;-18298.53;;;10.05;100.00
24746;BME280;12845;52.042;6.838;2023-03-22T04:16:45;-18298.69;;;10.05;100.00
24746;BME280;12845;52.042;6.838;2023-03-22T04:19:11;-18299.50;;;10.08;100.00
24746;BME280;12845;52.042;6.838;2023-03-22T04:21:37;-18297.72;;;10.02;100.00
24746;BME280;12845;52.042;6.838;2023-03-22T04:24:03;-18297.31;;;10.00;100.00
24746;BME280;12845;52.042;6.838;2023-03-22T04:26:28;-18296.63;;;9.98;100.00
24746;BME280;12845;52.042;6.838;2023-03-22T04:28:54;-18297.44;;;10.01;100.00
24746;BME280;12845;52.042;6.838;2023-03-22T04:31:20;-18298.00;;;10.03;100.00
24746;BME280;12845;52.042;6.838;2023-03-22T04:33:46;-18297.56;;;10.01;100.00
24746;BME280;12845;52.042;6.838;2023-03-22T04:36:14;-18297.31;;;10.00;100.00
24746;BME280;12845;52.042;6.838;2023-03-22T04:38:43;-18298.25;;;10.04;100.00
24746;BME280;12845;52.042;6.838;2023-03-22T04:41:09;-18298.81;;;10.06;100.00
24746;BME280;12845;52.042;6.838;2023-03-22T04:43:35;-18298.69;;;10.05;100.00
24746;BME280;12845;52.042;6.838;2023-03-22T04:46:07;-18298.41;;;10.04;100.00
24746;BME280;12845;52.042;6.838;2023-03-22T04:48:38;-18297.72;;;10.02;100.00
24746;BME280;12845;52.042;6.838;2023-03-22T04:51:05;-18296.75;;;9.98;100.00
24746;BME280;12845;52.042;6.838;2023-03-22T04:53:31;-18296.19;;;9.96;100.00
24746;BME280;12845;52.042;6.838;2023-03-22T04:55:56;-18295.66;;;9.94;100.00
24746;BME280;12845;52.042;6.838;2023-03-22T04:58:23;-18295.94;;;9.95;100.00
24746;BME280;12845;52.042;6.838;2023-03-22T05:00:49;-18294.97;;;9.91;100.00
24746;BME280;12845;52.042;6.838;2023-03-22T05:03:18;-18294.56;;;9.90;100.00
24746;BME280;12845;52.042;6.838;2023-03-22T05:05:51;-18294.56;;;9.90;100.00
24746;BME280;12845;52.042;6.838;2023-03-22T05:08:19;-18293.72;;;9.87;100.00
24746;BME280;12845;52.042;6.838;2023-03-22T05:10:44;-18293.88;;;9.87;100.00
24746;BME280;12845;52.042;6.838;2023-03-22T05:13:10;-18294.56;;;9.90;100.00
24746;BME280;12845;52.042;6.838;2023-03-22T05:15:37;-18294.28;;;9.89;100.00
24746;BME280;12845;52.042;6.838;2023-03-22T05:18:03;-18294.81;;;9.91;100.00
24746;BME280;12845;52.042;6.838;2023-03-22T05:20:28;-18294.97;;;9.91;100.00
24746;BME280;12845;52.042;6.838;2023-03-22T05:22:54;-18294.13;;;9.88;100.00
24746;BME280;12845;52.042;6.838;2023-03-22T05:25:21;-18293.59;;;9.86;100.00
24746;BME280;12845;52.042;6.838;2023-03-22T05:27:47;-18293.03;;;9.84;100.00
24746;BME280;12845;52.042;6.838;2023-03-22T05:30:14;-18293.03;;;9.84;100.00
24746;BME280;12845;52.042;6.838;2023-03-22T05:32:40;-18292.63;;;9.83;100.00
24746;BME280;12845;52.042;6.838;2023-03-22T05:35:08;-18292.22;;;9.81;100.00
24746;BME280;12845;52.042;6.838;2023-03-22T05:37:33;-18292.06;;;9.81;100.00
24746;BME280;12845;52.042;6.838;2023-03-22T05:39:59;-18291.38;;;9.78;100.00
24746;BME280;12845;52.042;6.838;2023-03-22T05:42:25;-18291.81;;;9.80;100.00
24746;BME280;12845;52.042;6.838;2023-03-22T05:44:51;-18291.94;;;9.80;100.00
24746;BME280;12845;52.042;6.838;2023-03-22T05:47:16;-18293.44;;;9.86;100.00
24746;BME280;12845;52.042;6.838;2023-03-22T05:49:41;-18292.63;;;9.83;100.00
24746;BME280;12845;52.042;6.838;2023-03-22T05:52:07;-18292.91;;;9.84;100.00
24746;BME280;12845;52.042;6.838;2023-03-22T05:54:33;-18292.63;;;9.83;100.00
24746;BME280;12845;52.042;6.838;2023-03-22T05:56:58;-18293.19;;;9.85;100.00
24746;BME280;12845;52.042;6.838;2023-03-22T05:59:24;-18294.00;;;9.88;100.00
24746;BME280;12845;52.042;6.838;2023-03-22T06:01:49;-18294.13;;;9.88;100.00
24746;BME280;12845;52.042;6.838;2023-03-22T06:04:15;-18295.09;;;9.92;100.00
24746;BME280;12845;52.042;6.838;2023-03-22T06:06:40;-18297.31;;;10.00;100.00
24746;BME280;12845;52.042;6.838;2023-03-22T06:09:06;-18294.56;;;9.90;100.00
24746;BME280;12845;52.042;6.838;2023-03-22T06:11:31;-18295.66;;;9.94;100.00
24746;BME280;12845;52.042;6.838;2023-03-22T06:13:59;-18296.47;;;9.97;100.00
24746;BME280;12845;52.042;6.838;2023-03-22T06:16:25;-18297.03;;;9.99;100.00
24746;BME280;12845;52.042;6.838;2023-03-22T06:18:51;-18296.75;;;9.98;100.00
24746;BME280;12845;52.042;6.838;2023-03-22T06:21:16;-18297.31;;;10.00;100.00
24746;BME280;12845;52.042;6.838;2023-03-22T06:23:41;-18297.72;;;10.02;100.00
24746;BME280;12845;52.042;6.838;2023-03-22T06:26:08;-18298.00;;;10.03;100.00
24746;BME280;12845;52.042;6.838;2023-03-22T06:28:35;-18298.81;;;10.06;100.00
24746;BME280;12845;52.042;6.838;2023-03-22T06:31:05;-18298.41;;;10.04;100.00
24746;BME280;12845;52.042;6.838;2023-03-22T06:33:31;-18298.41;;;10.04;100.00
24746;BME280;12845;52.042;6.838;2023-03-22T06:35:57;-18299.38;;;10.08;100.00
24746;BME280;12845;52.042;6.838;2023-03-22T06:38:23;-18298.00;;;10.03;100.00
24746;BME280;12845;52.042;6.838;2023-03-22T06:40:49;-18300.47;;;10.12;100.00
24746;BME280;12845;52.042;6.838;2023-03-22T06:43:14;-18299.91;;;10.10;100.00
24746;BME280;12845;52.042;6.838;2023-03-22T06:45:39;-18299.63;;;10.09;100.00
24746;BME280;12845;52.042;6.838;2023-03-22T06:48:05;-18299.50;;;10.08;100.00
24746;BME280;12845;52.042;6.838;2023-03-22T06:50:31;-18300.47;;;10.12;100.00
24746;BME280;12845;52.042;6.838;2023-03-22T06:52:56;-18298.94;;;10.06;100.00
24746;BME280;12845;52.042;6.838;2023-03-22T06:55:22;-18300.31;;;10.11;100.00
24746;BME280;12845;52.042;6.838;2023-03-22T06:57:47;-18299.78;;;10.09;100.00
24746;BME280;12845;52.042;6.838;2023-03-22T07:00:13;-18300.88;;;10.13;100.00
24746;BME280;12845;52.042;6.838;2023-03-22T07:02:39;-18301.41;;;10.15;100.00
24746;BME280;12845;52.042;6.838;2023-03-22T07:05:04;-18301.41;;;10.15;100.00
24746;BME280;12845;52.042;6.838;2023-03-22T07:07:30;-18301.69;;;10.16;100.00
24746;BME280;12845;52.042;6.838;2023-03-22T07:09:55;-18301.97;;;10.17;100.00
24746;BME280;12845;52.042;6.838;2023-03-22T07:12:21;-18301.97;;;10.17;100.00
24746;BME280;12845;52.042;6.838;2023-03-22T07:14:46;-18302.66;;;10.20;100.00
24746;BME280;12845;52.042;6.838;2023-03-22T07:17:12;-18302.38;;;10.19;100.00
24746;BME280;12845;52.042;6.838;2023-03-22T07:19:38;-18300.88;;;10.13;100.00
24746;BME280;12845;52.042;6.838;2023-03-22T07:22:05;-18301.16;;;10.14;100.00
24746;BME280;12845;52.042;6.838;2023-03-22T07:24:30;-18301.69;;;10.16;100.00
24746;BME280;12845;52.042;6.838;2023-03-22T07:26:55;-18302.78;;;10.21;100.00
24746;BME280;12845;52.042;6.838;2023-03-22T07:29:21;-18303.22;;;10.22;100.00
24746;BME280;12845;52.042;6.838;2023-03-22T07:31:46;-18304.59;;;10.27;100.00
24746;BME280;12845;52.042;6.838;2023-03-22T07:34:12;-18305.97;;;10.32;100.00
24746;BME280;12845;52.042;6.838;2023-03-22T07:36:37;-18308.03;;;10.40;100.00
24746;BME280;12845;52.042;6.838;2023-03-22T07:39:02;-18310.22;;;10.48;100.00
24746;BME280;12845;52.042;6.838;2023-03-22T07:41:29;-18310.50;;;10.49;100.00
24746;BME280;12845;52.042;6.838;2023-03-22T07:43:55;-18311.88;;;10.54;100.00
24746;BME280;12845;52.042;6.838;2023-03-22T07:46:20;-18312.69;;;10.57;100.00
24746;BME280;12845;52.042;6.838;2023-03-22T07:48:45;-18312.56;;;10.57;100.00
24746;BME280;12845;52.042;6.838;2023-03-22T07:51:11;-18313.78;;;10.61;100.00
24746;BME280;12845;52.042;6.838;2023-03-22T07:53:36;-18314.34;;;10.64;100.00
24746;BME280;12845;52.042;6.838;2023-03-22T07:56:03;-18314.47;;;10.64;100.00
24746;BME280;12845;52.042;6.838;2023-03-22T07:58:29;-18312.56;;;10.57;100.00
24746;BME280;12845;52.042;6.838;2023-03-22T08:00:54;-18313.53;;;10.60;100.00
24746;BME280;12845;52.042;6.838;2023-03-22T08:03:20;-18314.91;;;10.66;100.00
24746;BME280;12845;52.042;6.838;2023-03-22T08:05:46;-18315.44;;;10.68;100.00
24746;BME280;12845;52.042;6.838;2023-03-22T08:08:12;-18315.84;;;10.69;100.00
24746;BME280;12845;52.042;6.838;2023-03-22T08:10:37;-18319.00;;;10.81;100.00
24746;BME280;12845;52.042;6.838;2023-03-22T08:13:03;-18318.31;;;10.78;100.00
24746;BME280;12845;52.042;6.838;2023-03-22T08:15:28;-18320.13;;;10.85;100.00
24746;BME280;12845;52.042;6.838;2023-03-22T08:17:55;-18324.78;;;11.02;100.00
24746;BME280;12845;52.042;6.838;2023-03-22T08:20:23;-18323.00;;;10.96;100.00
24746;BME280;12845;52.042;6.838;2023-03-22T08:22:51;-18323.97;;;10.99;100.00
24746;BME280;12845;52.042;6.838;2023-03-22T08:25:16;-18324.25;;;11.00;100.00
24746;BME280;12845;52.042;6.838;2023-03-22T08:27:42;-18323.13;;;10.96;100.00
24746;BME280;12845;52.042;6.838;2023-03-22T08:30:08;-18320.94;;;10.88;100.00
24746;BME280;12845;52.042;6.838;2023-03-22T08:32:34;-18323.56;;;10.98;100.00
24746;BME280;12845;52.042;6.838;2023-03-22T08:34:59;-18323.69;;;10.98;100.00
24746;BME280;12845;52.042;6.838;2023-03-22T08:37:25;-18322.59;;;10.94;100.00
24746;BME280;12845;52.042;6.838;2023-03-22T08:39:50;-18321.75;;;10.91;100.00
24746;BME280;12845;52.042;6.838;2023-03-22T08:42:15;-18320.25;;;10.86;100.00
24746;BME280;12845;52.042;6.838;2023-03-22T08:44:41;-18320.53;;;10.87;100.00
24746;BME280;12845;52.042;6.838;2023-03-22T08:47:07;-18322.31;;;10.93;100.00
24746;BME280;12845;52.042;6.838;2023-03-22T08:49:32;-18325.19;;;11.04;100.00
24746;BME280;12845;52.042;6.838;2023-03-22T08:51:58;-18327.25;;;11.12;100.00
24746;BME280;12845;52.042;6.838;2023-03-22T08:54:23;-18327.53;;;11.13;100.00
24746;BME280;12845;52.042;6.838;2023-03-22T08:56:51;-18331.09;;;11.26;100.00
24746;BME280;12845;52.042;6.838;2023-03-22T08:59:16;-18332.47;;;11.31;100.00
24746;BME280;12845;52.042;6.838;2023-03-22T09:01:42;-18333.56;;;11.35;100.00
24746;BME280;12845;52.042;6.838;2023-03-22T09:04:07;-18334.41;;;11.38;100.00
24746;BME280;12845;52.042;6.838;2023-03-22T09:06:32;-18336.19;;;11.45;100.00
24746;BME280;12845;52.042;6.838;2023-03-22T09:08:58;-18335.22;;;11.41;100.00
24746;BME280;12845;52.042;6.838;2023-03-22T09:11:23;-18336.88;;;11.47;100.00
24746;BME280;12845;52.042;6.838;2023-03-22T09:13:49;-18337.00;;;11.48;100.00
24746;BME280;12845;52.042;6.838;2023-03-22T09:16:16;-18336.03;;;11.44;100.00
24746;BME280;12845;52.042;6.838;2023-03-22T09:18:42;-18336.47;;;11.46;100.00
24746;BME280;12845;52.042;6.838;2023-03-22T09:21:08;-18336.47;;;11.46;100.00
24746;BME280;12845;52.042;6.838;2023-03-22T09:23:34;-18334.66;;;11.39;100.00
24746;BME280;12845;52.042;6.838;2023-03-22T09:26:04;-18331.94;;;11.29;100.00
24746;BME280;12845;52.042;6.838;2023-03-22T09:28:30;-18333.31;;;11.34;100.00
24746;BME280;12845;52.042;6.838;2023-03-22T09:31:05;-18335.50;;;11.42;100.00
24746;BME280;12845;52.042;6.838;2023-03-22T09:33:30;-18337.97;;;11.51;100.00
24746;BME280;12845;52.042;6.838;2023-03-22T09:35:56;-18335.63;;;11.43;100.00
24746;BME280;12845;52.042;6.838;2023-03-22T09:38:22;-18336.31;;;11.45;100.00
24746;BME280;12845;52.042;6.838;2023-03-22T09:40:56;-18337.56;;;11.50;100.00
24746;BME280;12845;52.042;6.838;2023-03-22T09:43:33;-18340.03;;;11.59;100.00
24746;BME280;12845;52.042;6.838;2023-03-22T09:46:00;-18342.91;;;11.70;100.00
24746;BME280;12845;52.042;6.838;2023-03-22T09:50:54;-18346.63;;;11.84;100.00
24746;BME280;12845;52.042;6.838;2023-03-22T09:53:22;-18347.03;;;11.85;100.00
24746;BME280;12845;52.042;6.838;2023-03-22T09:56:09;-18350.03;;;11.96;100.00
24746;BME280;12845;52.042;6.838;2023-03-22T10:01:27;-18354.72;;;12.14;100.00
24746;BME280;12845;52.042;6.838;2023-03-22T10:06:46;-18356.22;;;12.19;100.00
24746;BME280;12845;52.042;6.838;2023-03-22T10:09:17;-18355.25;;;12.16;100.00
24746;BME280;12845;52.042;6.838;2023-03-22T10:11:58;-18355.13;;;12.15;100.00
24746;BME280;12845;52.042;6.838;2023-03-22T10:14:39;-18356.09;;;12.19;100.00
24746;BME280;12845;52.042;6.838;2023-03-22T10:17:11;-18357.19;;;12.23;100.00
24746;BME280;12845;52.042;6.838;2023-03-22T10:19:49;-18357.47;;;12.24;100.00
24746;BME280;12845;52.042;6.838;2023-03-22T10:22:18;-18360.34;;;12.35;100.00
24746;BME280;12845;52.042;6.838;2023-03-22T10:24:50;-18361.31;;;12.38;100.00
24746;BME280;12845;52.042;6.838;2023-03-22T10:27:18;-18361.03;;;12.37;100.00
24746;BME280;12845;52.042;6.838;2023-03-22T10:29:52;-18362.41;;;12.42;100.00
24746;BME280;12845;52.042;6.838;2023-03-22T10:32:25;-18364.72;;;12.51;100.00
24746;BME280;12845;52.042;6.838;2023-03-22T10:34:53;-18363.91;;;12.48;100.00
24746;BME280;12845;52.042;6.838;2023-03-22T10:37:24;-18363.34;;;12.46;100.00
24746;BME280;12845;52.042;6.838;2023-03-22T10:39:54;-18361.03;;;12.37;100.00
24746;BME280;12845;52.042;6.838;2023-03-22T10:42:27;-18362.66;;;12.44;100.00
24746;BME280;12845;52.042;6.838;2023-03-22T10:45:00;-18362.13;;;12.41;100.00
24746;BME280;12845;52.042;6.838;2023-03-22T10:47:53;-18360.06;;;12.34;100.00
24746;BME280;12845;52.042;6.838;2023-03-22T10:50:28;-18359.09;;;12.30;100.00
24746;BME280;12845;52.042;6.838;2023-03-22T10:55:25;-18356.91;;;12.22;100.00
24746;BME280;12845;52.042;6.838;2023-03-22T10:57:59;-18358.41;;;12.28;100.00
24746;BME280;12845;52.042;6.838;2023-03-22T11:00:32;-18358.00;;;12.26;100.00
24746;BME280;12845;52.042;6.838;2023-03-22T11:02:59;-18357.31;;;12.24;100.00
24746;BME280;12845;52.042;6.838;2023-03-22T11:05:28;-18356.63;;;12.21;100.00
24746;BME280;12845;52.042;6.838;2023-03-22T11:07:55;-18355.25;;;12.16;100.00
24746;BME280;12845;52.042;6.838;2023-03-22T11:10:31;-18355.00;;;12.15;100.00
24746;BME280;12845;52.042;6.838;2023-03-22T11:15:34;-18356.50;;;12.21;100.00
24746;BME280;12845;52.042;6.838;2023-03-22T11:18:29;-18356.91;;;12.22;100.00
24746;BME280;12845;52.042;6.838;2023-03-22T11:21:15;-18355.81;;;12.18;100.00
24746;BME280;12845;52.042;6.838;2023-03-22T11:23:50;-18355.00;;;12.15;100.00
24746;BME280;12845;52.042;6.838;2023-03-22T11:26:24;-18354.44;;;12.13;100.00
24746;BME280;12845;52.042;6.838;2023-03-22T11:28:50;-18352.94;;;12.07;100.00
24746;BME280;12845;52.042;6.838;2023-03-22T11:31:17;-18348.69;;;11.91;100.00
24746;BME280;12845;52.042;6.838;2023-03-22T11:33:53;-18348.00;;;11.89;100.00
24746;BME280;12845;52.042;6.838;2023-03-22T11:36:19;-18347.03;;;11.85;100.00
24746;BME280;12845;52.042;6.838;2023-03-22T11:38:45;-18344.69;;;11.77;100.00
24746;BME280;12845;52.042;6.838;2023-03-22T11:41:32;-18341.81;;;11.66;100.00
24746;BME280;12845;52.042;6.838;2023-03-22T11:44:04;-18337.41;;;11.49;100.00
24746;BME280;12845;52.042;6.838;2023-03-22T11:46:32;-18336.72;;;11.47;100.00
24746;BME280;12845;52.042;6.838;2023-03-22T11:49:04;-18337.00;;;11.48;100.00
24746;BME280;12845;52.042;6.838;2023-03-22T11:51:34;-18335.22;;;11.41;100.00
24746;BME280;12845;52.042;6.838;2023-03-22T11:54:14;-18334.66;;;11.39;100.00
24746;BME280;12845;52.042;6.838;2023-03-22T11:56:46;-18334.25;;;11.38;100.00
24746;BME280;12845;52.042;6.838;2023-03-22T11:59:14;-18334.53;;;11.39;100.00
24746;BME280;12845;52.042;6.838;2023-03-22T12:04:23;-18332.75;;;11.32;100.00
24746;BME280;12845;52.042;6.838;2023-03-22T12:06:51;-18332.34;;;11.30;100.00
24746;BME280;12845;52.042;6.838;2023-03-22T12:11:49;-18332.47;;;11.31;100.00
24746;BME280;12845;52.042;6.838;2023-03-22T12:14:42;-18331.94;;;11.29;100.00
24746;BME280;12845;52.042;6.838;2023-03-22T12:17:17;-18335.78;;;11.43;100.00
24746;BME280;12845;52.042;6.838;2023-03-22T12:22:19;-18335.91;;;11.44;100.00
24746;BME280;12845;52.042;6.838;2023-03-22T12:24:45;-18337.00;;;11.48;100.00
24746;BME280;12845;52.042;6.838;2023-03-22T12:27:17;-18336.59;;;11.46;100.00
24746;BME280;12845;52.042;6.838;2023-03-22T12:29:48;-18337.16;;;11.48;100.00
24746;BME280;12845;52.042;6.838;2023-03-22T12:32:33;-18337.41;;;11.49;100.00
24746;BME280;12845;52.042;6.838;2023-03-22T12:34:59;-18337.97;;;11.51;100.00
24746;BME280;12845;52.042;6.838;2023-03-22T12:37:28;-18337.97;;;11.51;100.00
24746;BME280;12845;52.042;6.838;2023-03-22T12:40:01;-18337.56;;;11.50;100.00
24746;BME280;12845;52.042;6.838;2023-03-22T12:45:04;-18339.63;;;11.58;100.00
24746;BME280;12845;52.042;6.838;2023-03-22T12:47:42;-18341.81;;;11.66;100.00
24746;BME280;12845;52.042;6.838;2023-03-22T12:50:16;-18340.72;;;11.62;100.00
24746;BME280;12845;52.042;6.838;2023-03-22T12:52:47;-18339.63;;;11.58;100.00
24746;BME280;12845;52.042;6.838;2023-03-22T12:55:23;-18341.25;;;11.64;100.00
24746;BME280;12845;52.042;6.838;2023-03-22T12:57:50;-18340.03;;;11.59;100.00
24746;BME280;12845;52.042;6.838;2023-03-22T13:00:20;-18341.53;;;11.65;100.00
24746;BME280;12845;52.042;6.838;2023-03-22T13:05:43;-18341.41;;;11.64;100.00
24746;BME280;12845;52.042;6.838;2023-03-22T13:08:09;-18340.56;;;11.61;100.00
24746;BME280;12845;52.042;6.838;2023-03-22T13:13:40;-18341.69;;;11.65;100.00
24746;BME280;12845;52.042;6.838;2023-03-22T13:21:19;-18342.63;;;11.69;100.00
24746;BME280;12845;52.042;6.838;2023-03-22T13:26:26;-18341.53;;;11.65;100.00
24746;BME280;12845;52.042;6.838;2023-03-22T13:28:59;-18342.91;;;11.70;100.00
24746;BME280;12845;52.042;6.838;2023-03-22T13:34:02;-18343.31;;;11.71;100.00
24746;BME280;12845;52.042;6.838;2023-03-22T13:36:29;-18341.13;;;11.63;100.00
24746;BME280;12845;52.042;6.838;2023-03-22T13:39:00;-18339.63;;;11.58;100.00
24746;BME280;12845;52.042;6.838;2023-03-22T13:41:33;-18338.50;;;11.53;100.00
24746;BME280;12845;52.042;6.838;2023-03-22T13:44:01;-18338.25;;;11.52;100.00
24746;BME280;12845;52.042;6.838;2023-03-22T13:51:31;-18336.47;;;11.46;100.00
24746;BME280;12845;52.042;6.838;2023-03-22T13:56:52;-18337.97;;;11.51;100.00
24746;BME280;12845;52.042;6.838;2023-03-22T13:59:31;-18338.50;;;11.53;100.00
24746;BME280;12845;52.042;6.838;2023-03-22T14:02:27;-18336.31;;;11.45;100.00
24746;BME280;12845;52.042;6.838;2023-03-22T14:05:03;-18337.56;;;11.50;100.00
24746;BME280;12845;52.042;6.838;2023-03-22T14:07:41;-18339.06;;;11.56;100.00
24746;BME280;12845;52.042;6.838;2023-03-22T14:10:21;-18339.47;;;11.57;100.00